sensor_id;sensor_type;location;lat;lon;timestamp;temperature;humidity
74520;DHT22;63002;48.134;-1.948;2023-09-12T05:02:16;25.60;59.60
74520;DHT22;63002;48.134;-1.948;2023-09-12T05:04:42;25.60;59.70
74520;DHT22;63002;48.134;-1.948;2023-09-12T05:07:07;25.60;59.80
74520;DHT22;63002;48.134;-1.948;2023-09-12T05:09:34;25.60;59.80
74520;DHT22;63002;48.134;-1.948;2023-09-12T05:11:59;25.60;59.70
74520;DHT22;63002;48.134;-1.948;2023-09-12T05:14:25;25.60;59.70
74520;DHT22;63002;48.134;-1.948;2023-09-12T05:16:51;25.60;59.80
74520;DHT22;63002;48.134;-1.948;2023-09-12T05:19:16;25.60;59.80
74520;DHT22;63002;48.134;-1.948;2023-09-12T05:21:42;25.50;59.80
74520;DHT22;63002;48.134;-1.948;2023-09-12T05:24:08;25.50;59.90
74520;DHT22;63002;48.134;-1.948;2023-09-12T05:26:34;25.60;59.60
74520;DHT22;63002;48.134;-1.948;2023-09-12T05:28:59;25.60;59.60
74520;DHT22;63002;48.134;-1.948;2023-09-12T05:31:25;25.70;59.50
74520;DHT22;63002;48.134;-1.948;2023-09-12T05:33:51;25.60;59.60
74520;DHT22;63002;48.134;-1.948;2023-09-12T05:36:16;25.60;59.70
74520;DHT22;63002;48.134;-1.948;2023-09-12T05:38:42;25.70;59.90
74520;DHT22;63002;48.134;-1.948;2023-09-12T05:41:08;25.90;59.90
74520;DHT22;63002;48.134;-1.948;2023-09-12T05:43:33;25.80;56.10
74520;DHT22;63002;48.134;-1.948;2023-09-12T05:45:59;25.50;58.10
74520;DHT22;63002;48.134;-1.948;2023-09-12T05:48:25;25.20;56.00
74520;DHT22;63002;48.134;-1.948;2023-09-12T05:50:50;25.00;56.90
74520;DHT22;63002;48.134;-1.948;2023-09-12T05:53:16;25.00;56.60
74520;DHT22;63002;48.134;-1.948;2023-09-12T05:55:42;25.00;57.50
74520;DHT22;63002;48.134;-1.948;2023-09-12T05:58:07;25.10;58.30
74520;DHT22;63002;48.134;-1.948;2023-09-12T06:00:33;25.10;58.50
74520;DHT22;63002;48.134;-1.948;2023-09-12T06:02:59;25.20;58.60
74520;DHT22;63002;48.134;-1.948;2023-09-12T06:05:25;25.20;58.90
74520;DHT22;63002;48.134;-1.948;2023-09-12T06:07:51;25.20;56.60
74520;DHT22;63002;48.134;-1.948;2023-09-12T06:10:17;25.10;56.40
74520;DHT22;63002;48.134;-1.948;2023-09-12T06:12:42;25.10;57.30
74520;DHT22;63002;48.134;-1.948;2023-09-12T06:15:08;25.10;57.90
74520;DHT22;63002;48.134;-1.948;2023-09-12T06:17:34;25.30;56.50
74520;DHT22;63002;48.134;-1.948;2023-09-12T06:20:00;25.30;56.70
74520;DHT22;63002;48.134;-1.948;2023-09-12T06:22:26;25.20;57.10
74520;DHT22;63002;48.134;-1.948;2023-09-12T06:24:52;25.20;57.80
74520;DHT22;63002;48.134;-1.948;2023-09-12T06:27:17;25.20;58.40
74520;DHT22;63002;48.134;-1.948;2023-09-12T06:29:46;25.20;58.60
74520;DHT22;63002;48.134;-1.948;2023-09-12T06:32:18;25.30;58.60
74520;DHT22;63002;48.134;-1.948;2023-09-12T06:34:44;25.30;58.70
74520;DHT22;63002;48.134;-1.948;2023-09-12T06:37:13;25.40;58.70
74520;DHT22;63002;48.134;-1.948;2023-09-12T06:39:39;25.40;58.70
74520;DHT22;63002;48.134;-1.948;2023-09-12T06:42:05;25.40;58.60
74520;DHT22;63002;48.134;-1.948;2023-09-12T06:44:31;25.40;58.60
74520;DHT22;63002;48.134;-1.948;2023-09-12T06:46:56;25.40;58.60
74520;DHT22;63002;48.134;-1.948;2023-09-12T06:49:22;25.40;58.70
74520;DHT22;63002;48.134;-1.948;2023-09-12T06:51:48;25.40;58.70
74520;DHT22;63002;48.134;-1.948;2023-09-12T06:54:14;25.40;58.70
74520;DHT22;63002;48.134;-1.948;2023-09-12T06:56:40;25.40;58.70
74520;DHT22;63002;48.134;-1.948;2023-09-12T06:59:08;25.40;58.70
74520;DHT22;63002;48.134;-1.948;2023-09-12T07:01:34;25.40;58.70
74520;DHT22;63002;48.134;-1.948;2023-09-12T07:04:00;25.40;58.60
74520;DHT22;63002;48.134;-1.948;2023-09-12T07:06:26;25.40;58.70
74520;DHT22;63002;48.134;-1.948;2023-09-12T07:08:52;25.50;58.60
74520;DHT22;63002;48.134;-1.948;2023-09-12T07:11:17;25.50;58.60
74520;DHT22;63002;48.134;-1.948;2023-09-12T07:13:45;25.50;58.60
74520;DHT22;63002;48.134;-1.948;2023-09-12T07:16:11;25.50;58.60
74520;DHT22;63002;48.134;-1.948;2023-09-12T07:18:37;25.50;58.60
74520;DHT22;63002;48.134;-1.948;2023-09-12T07:21:04;25.50;58.60
74520;DHT22;63002;48.134;-1.948;2023-09-12T07:23:30;25.50;58.60
74520;DHT22;63002;48.134;-1.948;2023-09-12T07:25:56;25.50;58.60
74520;DHT22;63002;48.134;-1.948;2023-09-12T07:28:26;25.50;58.60
74520;DHT22;63002;48.134;-1.948;2023-09-12T07:30:56;25.50;58.60
74520;DHT22;63002;48.134;-1.948;2023-09-12T07:33:22;25.40;58.60
74520;DHT22;63002;48.134;-1.948;2023-09-12T07:35:48;25.50;58.60
74520;DHT22;63002;48.134;-1.948;2023-09-12T07:38:14;25.50;58.70
74520;DHT22;63002;48.134;-1.948;2023-09-12T07:40:43;25.50;58.60
74520;DHT22;63002;48.134;-1.948;2023-09-12T07:43:09;25.50;58.60
74520;DHT22;63002;48.134;-1.948;2023-09-12T07:45:35;25.50;58.50
74520;DHT22;63002;48.134;-1.948;2023-09-12T07:48:08;25.50;58.60
74520;DHT22;63002;48.134;-1.948;2023-09-12T07:50:34;25.40;58.50
74520;DHT22;63002;48.134;-1.948;2023-09-12T07:53:00;25.50;58.50
74520;DHT22;63002;48.134;-1.948;2023-09-12T07:55:26;25.50;58.60
74520;DHT22;63002;48.134;-1.948;2023-09-12T07:57:55;25.50;58.50
74520;DHT22;63002;48.134;-1.948;2023-09-12T08:00:21;25.50;58.50
74520;DHT22;63002;48.134;-1.948;2023-09-12T08:02:47;25.40;58.60
74520;DHT22;63002;48.134;-1.948;2023-09-12T08:05:13;25.50;58.50
74520;DHT22;63002;48.134;-1.948;2023-09-12T08:07:38;25.50;58.50
74520;DHT22;63002;48.134;-1.948;2023-09-12T08:10:04;25.50;58.50
74520;DHT22;63002;48.134;-1.948;2023-09-12T08:12:30;25.50;58.50
74520;DHT22;63002;48.134;-1.948;2023-09-12T08:14:56;25.50;58.50
74520;DHT22;63002;48.134;-1.948;2023-09-12T08:17:22;25.50;58.40
74520;DHT22;63002;48.134;-1.948;2023-09-12T08:19:48;25.50;58.50
74520;DHT22;63002;48.134;-1.948;2023-09-12T08:22:14;25.50;58.50
74520;DHT22;63002;48.134;-1.948;2023-09-12T08:24:40;25.50;58.50
74520;DHT22;63002;48.134;-1.948;2023-09-12T08:27:06;25.50;58.50
74520;DHT22;63002;48.134;-1.948;2023-09-12T08:29:33;25.50;58.50
74520;DHT22;63002;48.134;-1.948;2023-09-12T08:31:59;25.50;58.40
74520;DHT22;63002;48.134;-1.948;2023-09-12T08:34:25;25.50;58.50
74520;DHT22;63002;48.134;-1.948;2023-09-12T08:36:51;25.50;58.50
74520;DHT22;63002;48.134;-1.948;2023-09-12T08:39:23;25.50;58.60
74520;DHT22;63002;48.134;-1.948;2023-09-12T08:41:49;25.50;58.50
74520;DHT22;63002;48.134;-1.948;2023-09-12T08:44:15;25.50;58.50
74520;DHT22;63002;48.134;-1.948;2023-09-12T08:46:42;25.50;58.50
74520;DHT22;63002;48.134;-1.948;2023-09-12T08:49:08;25.50;58.50
74520;DHT22;63002;48.134;-1.948;2023-09-12T08:51:36;25.50;58.50
74520;DHT22;63002;48.134;-1.948;2023-09-12T08:54:02;25.50;58.60
74520;DHT22;63002;48.134;-1.948;2023-09-12T08:56:30;25.50;58.50
74520;DHT22;63002;48.134;-1.948;2023-09-12T08:58:56;25.50;58.50
74520;DHT22;63002;48.134;-1.948;2023-09-12T09:01:23;25.50;58.60
74520;DHT22;63002;48.134;-1.948;2023-09-12T09:03:53;25.50;58.60
74520;DHT22;63002;48.134;-1.948;2023-09-12T09:06:20;25.50;58.60
74520;DHT22;63002;48.134;-1.948;2023-09-12T09:08:48;25.50;58.60
74520;DHT22;63002;48.134;-1.948;2023-09-12T09:11:14;25.50;58.70
74520;DHT22;63002;48.134;-1.948;2023-09-12T09:13:40;25.50;58.60
74520;DHT22;63002;48.134;-1.948;2023-09-12T09:16:17;25.50;58.70
74520;DHT22;63002;48.134;-1.948;2023-09-12T09:19:02;25.50;58.70
74520;DHT22;63002;48.134;-1.948;2023-09-12T09:21:32;25.50;58.70
74520;DHT22;63002;48.134;-1.948;2023-09-12T09:24:02;25.50;58.70
74520;DHT22;63002;48.134;-1.948;2023-09-12T09:26:49;25.50;58.70
74520;DHT22;63002;48.134;-1.948;2023-09-12T09:29:20;25.50;58.70
74520;DHT22;63002;48.134;-1.948;2023-09-12T09:31:49;25.50;58.70
74520;DHT22;63002;48.134;-1.948;2023-09-12T09:34:16;25.50;58.70
74520;DHT22;63002;48.134;-1.948;2023-09-12T09:36:52;25.50;58.80
74520;DHT22;63002;48.134;-1.948;2023-09-12T09:39:20;25.50;58.70
74520;DHT22;63002;48.134;-1.948;2023-09-12T09:41:49;25.50;58.80
74520;DHT22;63002;48.134;-1.948;2023-09-12T09:44:16;25.50;58.80
74520;DHT22;63002;48.134;-1.948;2023-09-12T09:46:46;25.50;58.80
74520;DHT22;63002;48.134;-1.948;2023-09-12T09:49:15;25.50;58.80
74520;DHT22;63002;48.134;-1.948;2023-09-12T09:51:44;25.50;58.80
74520;DHT22;63002;48.134;-1.948;2023-09-12T09:54:13;25.50;58.80
74520;DHT22;63002;48.134;-1.948;2023-09-12T09:56:50;25.50;58.80
74520;DHT22;63002;48.134;-1.948;2023-09-12T09:59:18;25.50;58.80
74520;DHT22;63002;48.134;-1.948;2023-09-12T10:01:45;25.50;58.80
74520;DHT22;63002;48.134;-1.948;2023-09-12T10:04:12;25.50;58.90
74520;DHT22;63002;48.134;-1.948;2023-09-12T10:06:38;25.50;58.80
74520;DHT22;63002;48.134;-1.948;2023-09-12T10:09:12;25.50;58.80
74520;DHT22;63002;48.134;-1.948;2023-09-12T10:11:43;25.50;58.80
74520;DHT22;63002;48.134;-1.948;2023-09-12T10:14:11;25.50;58.80
74520;DHT22;63002;48.134;-1.948;2023-09-12T10:16:50;25.50;58.90
74520;DHT22;63002;48.134;-1.948;2023-09-12T10:19:23;25.50;58.80
74520;DHT22;63002;48.134;-1.948;2023-09-12T10:22:01;25.60;58.80
74520;DHT22;63002;48.134;-1.948;2023-09-12T10:24:29;25.60;58.80
74520;DHT22;63002;48.134;-1.948;2023-09-12T10:26:57;25.50;58.80
74520;DHT22;63002;48.134;-1.948;2023-09-12T10:29:23;25.50;58.80
74520;DHT22;63002;48.134;-1.948;2023-09-12T10:31:49;25.50;58.80
74520;DHT22;63002;48.134;-1.948;2023-09-12T10:34:16;25.50;58.90
74520;DHT22;63002;48.134;-1.948;2023-09-12T10:36:43;25.50;58.90
74520;DHT22;63002;48.134;-1.948;2023-09-12T10:39:10;25.50;58.80
74520;DHT22;63002;48.134;-1.948;2023-09-12T10:41:39;25.50;58.90
74520;DHT22;63002;48.134;-1.948;2023-09-12T10:44:17;25.50;58.90
74520;DHT22;63002;48.134;-1.948;2023-09-12T10:46:45;25.50;58.90
74520;DHT22;63002;48.134;-1.948;2023-09-12T10:49:12;25.50;58.90
74520;DHT22;63002;48.134;-1.948;2023-09-12T10:51:42;25.50;58.90
74520;DHT22;63002;48.134;-1.948;2023-09-12T10:54:12;25.50;58.90
74520;DHT22;63002;48.134;-1.948;2023-09-12T10:56:38;25.50;58.90
74520;DHT22;63002;48.134;-1.948;2023-09-12T11:01:33;25.50;58.90
74520;DHT22;63002;48.134;-1.948;2023-09-12T11:06:43;25.50;59.00
74520;DHT22;63002;48.134;-1.948;2023-09-12T11:09:23;25.50;59.00
74520;DHT22;63002;48.134;-1.948;2023-09-12T11:12:03;25.50;59.00
74520;DHT22;63002;48.134;-1.948;2023-09-12T11:14:30;25.50;59.00
74520;DHT22;63002;48.134;-1.948;2023-09-12T11:19:44;25.50;59.00
74520;DHT22;63002;48.134;-1.948;2023-09-12T11:22:26;25.50;59.00
74520;DHT22;63002;48.134;-1.948;2023-09-12T11:24:53;25.50;59.00
74520;DHT22;63002;48.134;-1.948;2023-09-12T11:27:20;25.50;59.00
74520;DHT22;63002;48.134;-1.948;2023-09-12T11:29:46;25.50;59.00
74520;DHT22;63002;48.134;-1.948;2023-09-12T11:32:26;25.50;59.10
74520;DHT22;63002;48.134;-1.948;2023-09-12T11:34:52;25.50;59.00
74520;DHT22;63002;48.134;-1.948;2023-09-12T11:37:25;25.50;59.10
74520;DHT22;63002;48.134;-1.948;2023-09-12T11:39:52;25.50;59.20
74520;DHT22;63002;48.134;-1.948;2023-09-12T11:42:18;25.50;59.10
74520;DHT22;63002;48.134;-1.948;2023-09-12T11:44:44;25.50;59.20
74520;DHT22;63002;48.134;-1.948;2023-09-12T11:47:10;25.50;59.10
74520;DHT22;63002;48.134;-1.948;2023-09-12T11:49:41;25.50;59.20
74520;DHT22;63002;48.134;-1.948;2023-09-12T11:52:14;25.50;59.20
74520;DHT22;63002;48.134;-1.948;2023-09-12T11:54:42;25.50;59.20
74520;DHT22;63002;48.134;-1.948;2023-09-12T11:57:13;25.50;59.30
74520;DHT22;63002;48.134;-1.948;2023-09-12T11:59:43;25.50;59.30
74520;DHT22;63002;48.134;-1.948;2023-09-12T12:02:17;25.50;59.30
74520;DHT22;63002;48.134;-1.948;2023-09-12T12:04:44;25.50;59.30
74520;DHT22;63002;48.134;-1.948;2023-09-12T12:07:10;25.50;59.30
74520;DHT22;63002;48.134;-1.948;2023-09-12T12:09:36;25.50;59.30
74520;DHT22;63002;48.134;-1.948;2023-09-12T12:12:12;25.60;59.30
74520;DHT22;63002;48.134;-1.948;2023-09-12T12:14:40;25.50;59.30
74520;DHT22;63002;48.134;-1.948;2023-09-12T12:17:10;25.50;59.30
74520;DHT22;63002;48.134;-1.948;2023-09-12T12:19:37;25.60;59.30
74520;DHT22;63002;48.134;-1.948;2023-09-12T12:22:04;25.60;59.30
74520;DHT22;63002;48.134;-1.948;2023-09-12T12:24:38;25.60;59.40
74520;DHT22;63002;48.134;-1.948;2023-09-12T12:27:04;25.60;59.30
74520;DHT22;63002;48.134;-1.948;2023-09-12T12:29:30;25.60;59.40
74520;DHT22;63002;48.134;-1.948;2023-09-12T12:32:02;25.60;59.40
74520;DHT22;63002;48.134;-1.948;2023-09-12T12:34:28;25.60;59.40
74520;DHT22;63002;48.134;-1.948;2023-09-12T12:36:54;25.60;59.40
74520;DHT22;63002;48.134;-1.948;2023-09-12T12:39:23;25.60;59.40
74520;DHT22;63002;48.134;-1.948;2023-09-12T12:41:52;25.60;59.40
74520;DHT22;63002;48.134;-1.948;2023-09-12T12:44:19;25.60;59.40
74520;DHT22;63002;48.134;-1.948;2023-09-12T12:46:51;25.60;59.40
74520;DHT22;63002;48.134;-1.948;2023-09-12T12:49:21;25.60;59.40
74520;DHT22;63002;48.134;-1.948;2023-09-12T12:51:48;25.60;59.40
74520;DHT22;63002;48.134;-1.948;2023-09-12T12:54:14;25.60;59.40
74520;DHT22;63002;48.134;-1.948;2023-09-12T12:56:40;25.60;59.40
74520;DHT22;63002;48.134;-1.948;2023-09-12T12:59:07;25.60;59.50
74520;DHT22;63002;48.134;-1.948;2023-09-12T13:01:37;25.60;59.50
74520;DHT22;63002;48.134;-1.948;2023-09-12T13:04:07;25.60;59.40
74520;DHT22;63002;48.134;-1.948;2023-09-12T13:06:34;25.60;59.40
74520;DHT22;63002;48.134;-1.948;2023-09-12T13:09:04;25.60;59.40
74520;DHT22;63002;48.134;-1.948;2023-09-12T13:11:31;25.60;59.50
74520;DHT22;63002;48.134;-1.948;2023-09-12T13:14:00;25.60;59.40
74520;DHT22;63002;48.134;-1.948;2023-09-12T13:16:28;25.60;59.50
74520;DHT22;63002;48.134;-1.948;2023-09-12T13:18:54;25.70;59.40
74520;DHT22;63002;48.134;-1.948;2023-09-12T13:21:19;25.70;59.40
74520;DHT22;63002;48.134;-1.948;2023-09-12T13:23:45;25.60;59.40
74520;DHT22;63002;48.134;-1.948;2023-09-12T13:26:11;25.70;59.40
74520;DHT22;63002;48.134;-1.948;2023-09-12T13:28:37;25.70;59.40
74520;DHT22;63002;48.134;-1.948;2023-09-12T13:31:03;25.70;59.50
74520;DHT22;63002;48.134;-1.948;2023-09-12T13:33:29;25.70;59.40
74520;DHT22;63002;48.134;-1.948;2023-09-12T13:35:54;25.70;59.40
74520;DHT22;63002;48.134;-1.948;2023-09-12T13:38:20;25.70;59.40
74520;DHT22;63002;48.134;-1.948;2023-09-12T13:40:48;25.70;59.40
74520;DHT22;63002;48.134;-1.948;2023-09-12T13:43:14;25.70;59.40
74520;DHT22;63002;48.134;-1.948;2023-09-12T13:45:40;25.70;59.40
74520;DHT22;63002;48.134;-1.948;2023-09-12T13:48:06;25.70;59.40
74520;DHT22;63002;48.134;-1.948;2023-09-12T13:50:33;25.70;59.40
74520;DHT22;63002;48.134;-1.948;2023-09-12T13:53:00;25.70;59.40
74520;DHT22;63002;48.134;-1.948;2023-09-12T13:55:29;25.70;59.40
74520;DHT22;63002;48.134;-1.948;2023-09-12T13:57:55;25.70;59.40
74520;DHT22;63002;48.134;-1.948;2023-09-12T14:00:21;25.70;59.40
74520;DHT22;63002;48.134;-1.948;2023-09-12T14:02:46;25.70;59.40
74520;DHT22;63002;48.134;-1.948;2023-09-12T14:05:12;25.80;59.40
74520;DHT22;63002;48.134;-1.948;2023-09-12T14:07:38;25.70;59.40
74520;DHT22;63002;48.134;-1.948;2023-09-12T14:10:08;25.70;59.40
74520;DHT22;63002;48.134;-1.948;2023-09-12T14:12:34;25.80;59.40
74520;DHT22;63002;48.134;-1.948;2023-09-12T14:15:00;25.80;59.40
74520;DHT22;63002;48.134;-1.948;2023-09-12T14:17:26;25.80;59.40
74520;DHT22;63002;48.134;-1.948;2023-09-12T14:19:54;25.80;59.40
74520;DHT22;63002;48.134;-1.948;2023-09-12T14:22:20;25.80;59.40
74520;DHT22;63002;48.134;-1.948;2023-09-12T14:24:47;25.80;59.40
74520;DHT22;63002;48.134;-1.948;2023-09-12T14:27:12;25.80;59.40
74520;DHT22;63002;48.134;-1.948;2023-09-12T14:29:38;25.80;59.30
74520;DHT22;63002;48.134;-1.948;2023-09-12T14:32:04;25.80;59.40
74520;DHT22;63002;48.134;-1.948;2023-09-12T14:34:30;25.80;59.40
74520;DHT22;63002;48.134;-1.948;2023-09-12T14:36:58;25.80;59.40
74520;DHT22;63002;48.134;-1.948;2023-09-12T14:39:24;25.80;59.40
74520;DHT22;63002;48.134;-1.948;2023-09-12T14:41:51;25.80;59.40
74520;DHT22;63002;48.134;-1.948;2023-09-12T14:44:22;25.80;59.40
74520;DHT22;63002;48.134;-1.948;2023-09-12T14:46:48;25.80;59.40
74520;DHT22;63002;48.134;-1.948;2023-09-12T14:49:14;25.80;59.30
74520;DHT22;63002;48.134;-1.948;2023-09-12T14:51:40;25.80;59.40
74520;DHT22;63002;48.134;-1.948;2023-09-12T14:54:06;25.80;59.40
74520;DHT22;63002;48.134;-1.948;2023-09-12T14:56:33;25.80;59.40
74520;DHT22;63002;48.134;-1.948;2023-09-12T14:59:00;25.80;59.40
74520;DHT22;63002;48.134;-1.948;2023-09-12T15:01:26;25.80;59.50
74520;DHT22;63002;48.134;-1.948;2023-09-12T15:03:52;25.80;59.50
74520;DHT22;63002;48.134;-1.948;2023-09-12T15:06:19;25.80;59.50
74520;DHT22;63002;48.134;-1.948;2023-09-12T15:08:45;25.80;59.50
74520;DHT22;63002;48.134;-1.948;2023-09-12T15:11:10;25.80;59.40
74520;DHT22;63002;48.134;-1.948;2023-09-12T15:13:36;25.80;59.30
74520;DHT22;63002;48.134;-1.948;2023-09-12T15:16:03;25.80;59.30
74520;DHT22;63002;48.134;-1.948;2023-09-12T15:18:29;25.80;59.40
74520;DHT22;63002;48.134;-1.948;2023-09-12T15:20:55;25.80;59.50
74520;DHT22;63002;48.134;-1.948;2023-09-12T15:23:21;25.80;59.50
74520;DHT22;63002;48.134;-1.948;2023-09-12T15:25:49;25.80;59.50
74520;DHT22;63002;48.134;-1.948;2023-09-12T15:28:14;25.80;59.60
74520;DHT22;63002;48.134;-1.948;2023-09-12T15:30:40;25.80;59.60
74520;DHT22;63002;48.134;-1.948;2023-09-12T15:33:06;25.70;59.60
74520;DHT22;63002;48.134;-1.948;2023-09-12T15:35:32;25.70;59.60
74520;DHT22;63002;48.134;-1.948;2023-09-12T15:37:57;25.70;59.60
74520;DHT22;63002;48.134;-1.948;2023-09-12T15:40:24;25.70;59.60
74520;DHT22;63002;48.134;-1.948;2023-09-12T15:42:49;25.70;59.70
74520;DHT22;63002;48.134;-1.948;2023-09-12T15:45:15;25.80;59.70
74520;DHT22;63002;48.134;-1.948;2023-09-12T15:47:43;25.80;59.60
74520;DHT22;63002;48.134;-1.948;2023-09-12T15:50:09;25.80;59.70
74520;DHT22;63002;48.134;-1.948;2023-09-12T15:52:35;25.70;59.70
74520;DHT22;63002;48.134;-1.948;2023-09-12T15:55:09;25.70;59.70
74520;DHT22;63002;48.134;-1.948;2023-09-12T15:57:36;25.70;59.60
74520;DHT22;63002;48.134;-1.948;2023-09-12T16:00:04;25.70;59.60
74520;DHT22;63002;48.134;-1.948;2023-09-12T16:02:33;25.70;59.60
74520;DHT22;63002;48.134;-1.948;2023-09-12T16:05:02;25.70;59.60
74520;DHT22;63002;48.134;-1.948;2023-09-12T16:07:30;25.70;59.60
74520;DHT22;63002;48.134;-1.948;2023-09-12T16:09:56;25.80;59.60
74520;DHT22;63002;48.134;-1.948;2023-09-12T16:12:22;25.70;59.60
74520;DHT22;63002;48.134;-1.948;2023-09-12T16:14:52;25.70;59.60
74520;DHT22;63002;48.134;-1.948;2023-09-12T16:17:19;25.70;59.60
74520;DHT22;63002;48.134;-1.948;2023-09-12T16:19:45;25.80;59.50
74520;DHT22;63002;48.134;-1.948;2023-09-12T16:22:10;25.90;59.50
74520;DHT22;63002;48.134;-1.948;2023-09-12T16:24:37;25.90;59.40
74520;DHT22;63002;48.134;-1.948;2023-09-12T16:27:03;25.90;59.40
74520;DHT22;63002;48.134;-1.948;2023-09-12T16:29:30;25.80;59.50
74520;DHT22;63002;48.134;-1.948;2023-09-12T16:31:55;25.80;59.60
74520;DHT22;63002;48.134;-1.948;2023-09-12T16:34:21;25.80;58.90
74520;DHT22;63002;48.134;-1.948;2023-09-12T16:36:47;25.80;58.30
74520;DHT22;63002;48.134;-1.948;2023-09-12T16:39:13;25.80;58.60
74520;DHT22;63002;48.134;-1.948;2023-09-12T16:41:39;25.80;58.90
74520;DHT22;63002;48.134;-1.948;2023-09-12T16:44:05;25.80;58.60
74520;DHT22;63002;48.134;-1.948;2023-09-12T16:46:31;25.70;58.50
74520;DHT22;63002;48.134;-1.948;2023-09-12T16:48:56;25.80;58.20
74520;DHT22;63002;48.134;-1.948;2023-09-12T16:51:22;25.70;56.80
74520;DHT22;63002;48.134;-1.948;2023-09-12T16:53:50;25.60;56.60
74520;DHT22;63002;48.134;-1.948;2023-09-12T16:56:16;25.50;56.90
74520;DHT22;63002;48.134;-1.948;2023-09-12T16:58:42;25.40;57.20
74520;DHT22;63002;48.134;-1.948;2023-09-12T17:01:09;25.40;57.20
74520;DHT22;63002;48.134;-1.948;2023-09-12T17:03:34;25.40;57.40
74520;DHT22;63002;48.134;-1.948;2023-09-12T17:06:00;25.40;57.50
74520;DHT22;63002;48.134;-1.948;2023-09-12T17:08:27;25.40;57.40
74520;DHT22;63002;48.134;-1.948;2023-09-12T17:10:53;25.30;57.20
74520;DHT22;63002;48.134;-1.948;2023-09-12T17:13:19;25.30;57.40
74520;DHT22;63002;48.134;-1.948;2023-09-12T17:15:46;25.30;57.90
74520;DHT22;63002;48.134;-1.948;2023-09-12T17:18:11;25.30;57.50
74520;DHT22;63002;48.134;-1.948;2023-09-12T17:20:37;25.30;57.10
74520;DHT22;63002;48.134;-1.948;2023-09-12T17:23:03;25.10;57.30
74520;DHT22;63002;48.134;-1.948;2023-09-12T17:25:29;25.10;57.40
74520;DHT22;63002;48.134;-1.948;2023-09-12T17:27:54;25.10;57.20
74520;DHT22;63002;48.134;-1.948;2023-09-12T17:30:20;25.00;57.30
74520;DHT22;63002;48.134;-1.948;2023-09-12T17:32:47;25.00;57.60
74520;DHT22;63002;48.134;-1.948;2023-09-12T17:35:13;25.10;57.70
74520;DHT22;63002;48.134;-1.948;2023-09-12T17:37:39;25.20;57.80
74520;DHT22;63002;48.134;-1.948;2023-09-12T17:40:07;25.20;57.90
74520;DHT22;63002;48.134;-1.948;2023-09-12T17:42:33;25.30;57.90
74520;DHT22;63002;48.134;-1.948;2023-09-12T17:45:00;25.30;57.90
74520;DHT22;63002;48.134;-1.948;2023-09-12T17:47:26;25.30;57.70
74520;DHT22;63002;48.134;-1.948;2023-09-12T17:49:53;25.30;57.60
74520;DHT22;63002;48.134;-1.948;2023-09-12T17:52:19;25.30;57.40
74520;DHT22;63002;48.134;-1.948;2023-09-12T17:54:44;25.20;56.50
74520;DHT22;63002;48.134;-1.948;2023-09-12T17:57:10;25.10;56.30
74520;DHT22;63002;48.134;-1.948;2023-09-12T17:59:39;24.90;56.30
74520;DHT22;63002;48.134;-1.948;2023-09-12T18:02:07;24.80;56.70
74520;DHT22;63002;48.134;-1.948;2023-09-12T18:04:33;24.70;56.70
74520;DHT22;63002;48.134;-1.948;2023-09-12T18:07:01;24.50;56.90
74520;DHT22;63002;48.134;-1.948;2023-09-12T18:09:27;24.40;57.10
74520;DHT22;63002;48.134;-1.948;2023-09-12T18:11:53;24.40;57.10
74520;DHT22;63002;48.134;-1.948;2023-09-12T18:14:20;24.40;57.10
74520;DHT22;63002;48.134;-1.948;2023-09-12T18:16:46;24.50;57.40
74520;DHT22;63002;48.134;-1.948;2023-09-12T18:19:11;24.60;57.40
74520;DHT22;63002;48.134;-1.948;2023-09-12T18:21:37;24.70;57.50
74520;DHT22;63002;48.134;-1.948;2023-09-12T18:24:05;24.80;57.40
74520;DHT22;63002;48.134;-1.948;2023-09-12T18:26:31;24.90;57.70
74520;DHT22;63002;48.134;-1.948;2023-09-12T18:28:57;24.90;57.20
74520;DHT22;63002;48.134;-1.948;2023-09-12T18:31:23;25.00;57.20
74520;DHT22;63002;48.134;-1.948;2023-09-12T18:33:48;25.00;57.20
74520;DHT22;63002;48.134;-1.948;2023-09-12T18:36:14;25.10;57.30
74520;DHT22;63002;48.134;-1.948;2023-09-12T18:38:41;25.10;57.30
74520;DHT22;63002;48.134;-1.948;2023-09-12T18:41:07;25.10;57.30
74520;DHT22;63002;48.134;-1.948;2023-09-12T18:43:34;25.20;57.40
74520;DHT22;63002;48.134;-1.948;2023-09-12T18:46:00;25.20;57.50
74520;DHT22;63002;48.134;-1.948;2023-09-12T18:48:25;25.20;57.60
74520;DHT22;63002;48.134;-1.948;2023-09-12T18:50:51;25.20;57.60
74520;DHT22;63002;48.134;-1.948;2023-09-12T18:53:18;25.20;57.20
74520;DHT22;63002;48.134;-1.948;2023-09-12T18:55:45;25.20;57.40
74520;DHT22;63002;48.134;-1.948;2023-09-12T18:58:11;25.20;57.60
74520;DHT22;63002;48.134;-1.948;2023-09-12T19:00:37;25.20;57.60
74520;DHT22;63002;48.134;-1.948;2023-09-12T19:03:06;25.20;57.50
74520;DHT22;63002;48.134;-1.948;2023-09-12T19:05:32;25.20;56.30
74520;DHT22;63002;48.134;-1.948;2023-09-12T19:08:07;25.10;56.80
74520;DHT22;63002;48.134;-1.948;2023-09-12T19:10:33;25.20;56.30
74520;DHT22;63002;48.134;-1.948;2023-09-12T19:12:59;25.30;56.10
74520;DHT22;63002;48.134;-1.948;2023-09-12T19:15:26;25.30;56.60
74520;DHT22;63002;48.134;-1.948;2023-09-12T19:17:52;25.30;57.40
74520;DHT22;63002;48.134;-1.948;2023-09-12T19:20:18;25.30;57.60
74520;DHT22;63002;48.134;-1.948;2023-09-12T19:22:44;25.30;57.80
74520;DHT22;63002;48.134;-1.948;2023-09-12T19:25:10;25.30;57.90
74520;DHT22;63002;48.134;-1.948;2023-09-12T19:27:37;25.30;58.00
74520;DHT22;63002;48.134;-1.948;2023-09-12T19:30:04;25.30;58.10
74520;DHT22;63002;48.134;-1.948;2023-09-12T19:32:32;25.40;57.60
74520;DHT22;63002;48.134;-1.948;2023-09-12T19:34:59;25.40;57.50
74520;DHT22;63002;48.134;-1.948;2023-09-12T19:37:25;25.60;57.20
74520;DHT22;63002;48.134;-1.948;2023-09-12T19:39:51;25.80;56.90
74520;DHT22;63002;48.134;-1.948;2023-09-12T19:42:17;25.70;56.90
74520;DHT22;63002;48.134;-1.948;2023-09-12T19:44:43;25.80;56.90
74520;DHT22;63002;48.134;-1.948;2023-09-12T19:47:14;25.80;57.00
74520;DHT22;63002;48.134;-1.948;2023-09-12T19:49:39;25.70;57.10
74520;DHT22;63002;48.134;-1.948;2023-09-12T19:52:06;25.70;57.00
74520;DHT22;63002;48.134;-1.948;2023-09-12T19:54:32;25.70;56.90
74520;DHT22;63002;48.134;-1.948;2023-09-12T19:56:58;25.80;56.80
74520;DHT22;63002;48.134;-1.948;2023-09-12T19:59:25;25.80;56.80
74520;DHT22;63002;48.134;-1.948;2023-09-12T20:01:51;25.80;56.80
74520;DHT22;63002;48.134;-1.948;2023-09-12T20:04:22;25.80;56.90
74520;DHT22;63002;48.134;-1.948;2023-09-12T20:06:48;25.70;57.10
74520;DHT22;63002;48.134;-1.948;2023-09-12T20:09:13;25.70;57.10
74520;DHT22;63002;48.134;-1.948;2023-09-12T20:11:42;25.70;57.30
74520;DHT22;63002;48.134;-1.948;2023-09-12T20:14:08;25.70;57.20
74520;DHT22;63002;48.134;-1.948;2023-09-12T20:16:35;25.70;57.20
74520;DHT22;63002;48.134;-1.948;2023-09-12T20:19:00;25.70;57.10
74520;DHT22;63002;48.134;-1.948;2023-09-12T20:21:34;25.70;57.10
74520;DHT22;63002;48.134;-1.948;2023-09-12T20:24:00;25.80;57.00